sensor_id;sensor_type;location;lat;lon;timestamp;pressure;altitude;pressure_sealevel;temperature;humidity
47280;BME280;34064;44.942;0.008;2023-03-11T00:00:32;97990.06;;;17.58;71.13
47280;BME280;34064;44.942;0.008;2023-03-11T00:03:02;97983.38;;;17.54;71.45
47280;BME280;34064;44.942;0.008;2023-03-11T00:05:35;97989.41;;;17.56;71.52
47280;BME280;34064;44.942;0.008;2023-03-11T00:08:05;97986.06;;;17.54;71.58
47280;BME280;34064;44.942;0.008;2023-03-11T00:10:40;97991.06;;;17.57;71.26
47280;BME280;34064;44.942;0.008;2023-03-11T00:13:09;97998.78;;;17.60;71.18
47280;BME280;34064;44.942;0.008;2023-03-11T00:15:39;97983.69;;;17.59;71.36
47280;BME280;34064;44.942;0.008;2023-03-11T00:18:07;97982.66;;;17.60;71.49
47280;BME280;34064;44.942;0.008;2023-03-11T00:20:37;97967.00;;;17.64;71.22
47280;BME280;34064;44.942;0.008;2023-03-11T00:23:10;97969.50;;;17.65;71.04
47280;BME280;34064;44.942;0.008;2023-03-11T00:25:43;97964.88;;;17.59;71.20
47280;BME280;34064;44.942;0.008;2023-03-11T00:28:11;97959.97;;;17.62;70.94
47280;BME280;34064;44.942;0.008;2023-03-11T00:30:41;97963.31;;;17.65;70.80
47280;BME280;34064;44.942;0.008;2023-03-11T00:33:10;97962.19;;;17.59;71.13
47280;BME280;34064;44.942;0.008;2023-03-11T00:35:38;97972.75;;;17.60;71.19
47280;BME280;34064;44.942;0.008;2023-03-11T00:38:07;97962.75;;;17.54;71.32
47280;BME280;34064;44.942;0.008;2023-03-11T00:40:36;97969.94;;;17.54;71.20
47280;BME280;34064;44.942;0.008;2023-03-11T00:43:03;97969.13;;;17.53;71.28
47280;BME280;34064;44.942;0.008;2023-03-11T00:45:34;97981.22;;;17.49;71.63
47280;BME280;34064;44.942;0.008;2023-03-11T00:48:02;97962.75;;;17.54;71.42
47280;BME280;34064;44.942;0.008;2023-03-11T00:50:32;97964.41;;;17.55;71.18
47280;BME280;34064;44.942;0.008;2023-03-11T00:52:59;97965.13;;;17.49;71.30
47280;BME280;34064;44.942;0.008;2023-03-11T00:55:29;97968.00;;;17.48;71.47
47280;BME280;34064;44.942;0.008;2023-03-11T00:57:57;97979.09;;;17.44;71.75
47280;BME280;34064;44.942;0.008;2023-03-11T01:00:26;97979.56;;;17.48;71.73
47280;BME280;34064;44.942;0.008;2023-03-11T01:02:54;97970.97;;;17.53;71.44
47280;BME280;34064;44.942;0.008;2023-03-11T01:05:24;97989.41;;;17.56;71.22
47280;BME280;34064;44.942;0.008;2023-03-11T01:07:50;97969.31;;;17.52;71.38
47280;BME280;34064;44.942;0.008;2023-03-11T01:10:17;97978.84;;;17.54;71.39
47280;BME280;34064;44.942;0.008;2023-03-11T01:12:44;97986.78;;;17.48;71.89
47280;BME280;34064;44.942;0.008;2023-03-11T01:15:22;97999.88;;;17.51;71.76
47280;BME280;34064;44.942;0.008;2023-03-11T01:17:49;97971.91;;;17.60;71.21
47280;BME280;34064;44.942;0.008;2023-03-11T01:20:16;97966.63;;;17.52;71.53
47280;BME280;34064;44.942;0.008;2023-03-11T01:22:43;97984.69;;;17.58;71.22
47280;BME280;34064;44.942;0.008;2023-03-11T01:25:14;97959.50;;;17.59;71.11
47280;BME280;34064;44.942;0.008;2023-03-11T01:27:41;97953.13;;;17.60;71.03
47280;BME280;34064;44.942;0.008;2023-03-11T01:30:09;97960.22;;;17.53;71.31
47280;BME280;34064;44.942;0.008;2023-03-11T01:32:38;97970.34;;;17.51;71.37
47280;BME280;34064;44.942;0.008;2023-03-11T01:35:04;97970.97;;;17.53;71.46
47280;BME280;34064;44.942;0.008;2023-03-11T01:37:31;97976.88;;;17.48;71.35
47280;BME280;34064;44.942;0.008;2023-03-11T01:39:57;97984.22;;;17.54;71.08
47280;BME280;34064;44.942;0.008;2023-03-11T01:42:24;97964.41;;;17.55;71.02
47280;BME280;34064;44.942;0.008;2023-03-11T01:44:50;97983.28;;;17.47;71.50
47280;BME280;34064;44.942;0.008;2023-03-11T01:47:37;97996.53;;;17.49;71.29
47280;BME280;34064;44.942;0.008;2023-03-11T01:50:07;97994.84;;;17.48;71.51
47280;BME280;34064;44.942;0.008;2023-03-11T01:52:35;97981.63;;;17.46;71.51
47280;BME280;34064;44.942;0.008;2023-03-11T01:55:02;97982.78;;;17.43;71.46
47280;BME280;34064;44.942;0.008;2023-03-11T01:57:30;97983.19;;;17.40;71.75
47280;BME280;34064;44.942;0.008;2023-03-11T01:59:58;97986.22;;;17.37;71.75
47280;BME280;34064;44.942;0.008;2023-03-11T02:02:39;97986.03;;;17.39;71.74
47280;BME280;34064;44.942;0.008;2023-03-11T02:05:07;97980.03;;;17.37;71.76
47280;BME280;34064;44.942;0.008;2023-03-11T02:07:34;97985.75;;;17.34;71.70
47280;BME280;34064;44.942;0.008;2023-03-11T02:10:02;97989.91;;;17.36;71.85
47280;BME280;34064;44.942;0.008;2023-03-11T02:12:34;97988.63;;;17.32;71.89
47280;BME280;34064;44.942;0.008;2023-03-11T02:15:02;97981.03;;;17.36;71.75
47280;BME280;34064;44.942;0.008;2023-03-11T02:17:30;97972.78;;;17.37;71.93
47280;BME280;34064;44.942;0.008;2023-03-11T02:22:44;97991.66;;;17.29;71.83
47280;BME280;34064;44.942;0.008;2023-03-11T02:25:36;97959.72;;;17.34;71.50
47280;BME280;34064;44.942;0.008;2023-03-11T02:28:07;97964.53;;;17.39;71.43
47280;BME280;34064;44.942;0.008;2023-03-11T02:30:35;97974.22;;;17.25;71.93
47280;BME280;34064;44.942;0.008;2023-03-11T02:33:05;97961.47;;;17.27;72.08
47280;BME280;34064;44.942;0.008;2023-03-11T02:35:32;97957.53;;;17.38;71.52
47280;BME280;34064;44.942;0.008;2023-03-11T02:37:59;97956.69;;;17.37;71.34
47280;BME280;34064;44.942;0.008;2023-03-11T02:40:46;97959.56;;;17.36;71.74
47280;BME280;34064;44.942;0.008;2023-03-11T02:43:16;97949.66;;;17.36;71.53
47280;BME280;34064;44.942;0.008;2023-03-11T02:45:45;97955.41;;;17.33;71.86
47280;BME280;34064;44.942;0.008;2023-03-11T02:48:14;97956.03;;;17.35;71.65
47280;BME280;34064;44.942;0.008;2023-03-11T02:50:42;97951.31;;;17.37;71.43
47280;BME280;34064;44.942;0.008;2023-03-11T02:53:09;97964.94;;;17.36;71.53
47280;BME280;34064;44.942;0.008;2023-03-11T02:55:36;97962.78;;;17.31;71.77
47280;BME280;34064;44.942;0.008;2023-03-11T02:58:02;97950.03;;;17.33;71.66
47280;BME280;34064;44.942;0.008;2023-03-11T03:00:28;97959.91;;;17.33;71.72
47280;BME280;34064;44.942;0.008;2023-03-11T03:02:55;97953.34;;;17.35;71.69
47280;BME280;34064;44.942;0.008;2023-03-11T03:05:22;97964.47;;;17.32;71.98
47280;BME280;34064;44.942;0.008;2023-03-11T03:07:49;97966.19;;;17.25;72.20
47280;BME280;34064;44.942;0.008;2023-03-11T03:10:17;97952.06;;;17.31;72.08
47280;BME280;34064;44.942;0.008;2023-03-11T03:12:44;97964.34;;;17.25;71.96
47280;BME280;34064;44.942;0.008;2023-03-11T03:15:10;97961.47;;;17.27;72.11
47280;BME280;34064;44.942;0.008;2023-03-11T03:17:37;97961.00;;;17.23;71.98
47280;BME280;34064;44.942;0.008;2023-03-11T03:20:04;97947.03;;;17.28;71.83
47280;BME280;34064;44.942;0.008;2023-03-11T03:22:36;97954.75;;;17.31;71.70
47280;BME280;34064;44.942;0.008;2023-03-11T03:25:03;97943.25;;;17.37;71.84
47280;BME280;34064;44.942;0.008;2023-03-11T03:27:30;97952.41;;;17.28;72.14
47280;BME280;34064;44.942;0.008;2023-03-11T03:29:56;97957.78;;;17.28;72.01
47280;BME280;34064;44.942;0.008;2023-03-11T03:32:23;97951.59;;;17.27;71.97
47280;BME280;34064;44.942;0.008;2023-03-11T03:34:49;97962.59;;;17.33;71.87
47280;BME280;34064;44.942;0.008;2023-03-11T03:37:15;97942.88;;;17.25;71.91
47280;BME280;34064;44.942;0.008;2023-03-11T03:39:42;97951.59;;;17.27;71.89
47280;BME280;34064;44.942;0.008;2023-03-11T03:42:08;97945.84;;;17.30;71.66
47280;BME280;34064;44.942;0.008;2023-03-11T03:44:34;97957.78;;;17.28;72.06
47280;BME280;34064;44.942;0.008;2023-03-11T03:47:01;97946.31;;;17.34;71.72
47280;BME280;34064;44.942;0.008;2023-03-11T03:49:27;97961.78;;;17.32;71.79
47280;BME280;34064;44.942;0.008;2023-03-11T03:51:54;97962.78;;;17.31;71.82
47280;BME280;34064;44.942;0.008;2023-03-11T03:54:20;97963.63;;;17.31;71.78
47280;BME280;34064;44.942;0.008;2023-03-11T03:56:46;97964.63;;;17.30;71.97
47280;BME280;34064;44.942;0.008;2023-03-11T03:59:13;97971.50;;;17.33;72.03
47280;BME280;34064;44.942;0.008;2023-03-11T04:01:39;97965.75;;;17.36;71.73
47280;BME280;34064;44.942;0.008;2023-03-11T04:04:05;97982.41;;;17.31;71.96
47280;BME280;34064;44.942;0.008;2023-03-11T04:06:32;97986.75;;;17.33;71.87
47280;BME280;34064;44.942;0.008;2023-03-11T04:08:58;97976.88;;;17.33;71.90
47280;BME280;34064;44.942;0.008;2023-03-11T04:11:24;97987.97;;;17.30;72.09
47280;BME280;34064;44.942;0.008;2023-03-11T04:13:51;97985.94;;;17.32;72.07
47280;BME280;34064;44.942;0.008;2023-03-11T04:16:22;97993.31;;;17.30;71.73
47280;BME280;34064;44.942;0.008;2023-03-11T04:18:48;97996.00;;;17.30;71.76
47280;BME280;34064;44.942;0.008;2023-03-11T04:21:15;97992.66;;;17.28;72.13
47280;BME280;34064;44.942;0.008;2023-03-11T04:23:41;98001.06;;;17.25;72.19
47280;BME280;34064;44.942;0.008;2023-03-11T04:26:08;97999.03;;;17.27;72.02
47280;BME280;34064;44.942;0.008;2023-03-11T04:28:34;97986.63;;;17.26;71.90
47280;BME280;34064;44.942;0.008;2023-03-11T04:31:01;97989.31;;;17.26;71.89
47280;BME280;34064;44.942;0.008;2023-03-11T04:33:27;97997.75;;;17.23;72.15
47280;BME280;34064;44.942;0.008;2023-03-11T04:35:54;97995.06;;;17.23;72.01
47280;BME280;34064;44.942;0.008;2023-03-11T04:38:20;97994.41;;;17.21;72.03
47280;BME280;34064;44.942;0.008;2023-03-11T04:40:46;98000.72;;;17.28;71.72
47280;BME280;34064;44.942;0.008;2023-03-11T04:43:13;98007.47;;;17.24;71.87
47280;BME280;34064;44.942;0.008;2023-03-11T04:45:40;97998.56;;;17.23;71.94
47280;BME280;34064;44.942;0.008;2023-03-11T04:48:07;97999.13;;;17.19;71.86
47280;BME280;34064;44.942;0.008;2023-03-11T04:50:34;98004.13;;;17.22;71.83
47280;BME280;34064;44.942;0.008;2023-03-11T04:53:00;97998.56;;;17.23;71.88
47280;BME280;34064;44.942;0.008;2023-03-11T04:55:27;97996.06;;;17.22;71.76
47280;BME280;34064;44.942;0.008;2023-03-11T04:57:53;98012.53;;;17.19;72.03
47280;BME280;34064;44.942;0.008;2023-03-11T05:00:19;98017.91;;;17.19;72.05
47280;BME280;34064;44.942;0.008;2023-03-11T05:02:50;98005.16;;;17.21;71.91
47280;BME280;34064;44.942;0.008;2023-03-11T05:05:17;98021.78;;;17.16;72.02
47280;BME280;34064;44.942;0.008;2023-03-11T05:07:45;98018.38;;;17.22;71.85
47280;BME280;34064;44.942;0.008;2023-03-11T05:10:14;98019.91;;;17.17;72.01
47280;BME280;34064;44.942;0.008;2023-03-11T05:12:50;98025.28;;;17.17;71.96
47280;BME280;34064;44.942;0.008;2023-03-11T05:15:17;98021.78;;;17.16;71.96
47280;BME280;34064;44.942;0.008;2023-03-11T05:17:44;98023.44;;;17.17;71.88
47280;BME280;34064;44.942;0.008;2023-03-11T05:20:11;98007.50;;;17.15;71.80
47280;BME280;34064;44.942;0.008;2023-03-11T05:22:38;98013.88;;;17.14;72.17
47280;BME280;34064;44.942;0.008;2023-03-11T05:25:05;98026.00;;;17.10;72.22
47280;BME280;34064;44.942;0.008;2023-03-11T05:27:32;98021.94;;;17.14;72.06
47280;BME280;34064;44.942;0.008;2023-03-11T05:29:58;98026.19;;;17.09;72.31
47280;BME280;34064;44.942;0.008;2023-03-11T05:32:24;98032.66;;;17.14;72.03
47280;BME280;34064;44.942;0.008;2023-03-11T05:34:51;98027.69;;;17.11;72.17
47280;BME280;34064;44.942;0.008;2023-03-11T05:37:17;98031.84;;;17.14;72.11
47280;BME280;34064;44.942;0.008;2023-03-11T05:39:44;98028.03;;;17.08;72.18
47280;BME280;34064;44.942;0.008;2023-03-11T05:42:10;98025.81;;;17.12;71.79
47280;BME280;34064;44.942;0.008;2023-03-11T05:44:39;98020.78;;;17.17;71.75
47280;BME280;34064;44.942;0.008;2023-03-11T05:47:07;98031.66;;;17.15;71.85
47280;BME280;34064;44.942;0.008;2023-03-11T05:49:34;98036.94;;;17.09;71.81
47280;BME280;34064;44.942;0.008;2023-03-11T05:52:05;98031.38;;;17.10;71.91
47280;BME280;34064;44.942;0.008;2023-03-11T05:54:32;98043.31;;;17.08;71.87
47280;BME280;34064;44.942;0.008;2023-03-11T05:57:00;98034.78;;;17.04;72.05
47280;BME280;34064;44.942;0.008;2023-03-11T05:59:27;98038.41;;;17.11;71.86
47280;BME280;34064;44.942;0.008;2023-03-11T06:01:55;98041.38;;;17.17;71.55
47280;BME280;34064;44.942;0.008;2023-03-11T06:04:22;98045.81;;;17.09;71.73
47280;BME280;34064;44.942;0.008;2023-03-11T06:06:50;98048.28;;;17.11;71.75
47280;BME280;34064;44.942;0.008;2023-03-11T06:09:17;98048.28;;;17.11;71.86
47280;BME280;34064;44.942;0.008;2023-03-11T06:11:45;98045.81;;;17.09;71.88
47280;BME280;34064;44.942;0.008;2023-03-11T06:14:13;98049.84;;;17.05;71.93
47280;BME280;34064;44.942;0.008;2023-03-11T06:16:41;98045.31;;;17.06;71.98
47280;BME280;34064;44.942;0.008;2023-03-11T06:19:08;98051.16;;;17.09;71.70
47280;BME280;34064;44.942;0.008;2023-03-11T06:21:36;98063.22;;;17.13;71.65
47280;BME280;34064;44.942;0.008;2023-03-11T06:24:04;98065.59;;;17.08;71.75
47280;BME280;34064;44.942;0.008;2023-03-11T06:26:31;98062.63;;;17.03;71.67
47280;BME280;34064;44.942;0.008;2023-03-11T06:28:59;98068.28;;;17.08;71.66
47280;BME280;34064;44.942;0.008;2023-03-11T06:31:27;98073.69;;;17.00;71.73
47280;BME280;34064;44.942;0.008;2023-03-11T06:33:56;98060.94;;;17.02;71.72
47280;BME280;34064;44.942;0.008;2023-03-11T06:36:25;98059.41;;;17.08;71.38
47280;BME280;34064;44.942;0.008;2023-03-11T06:38:53;98057.06;;;17.05;71.39
47280;BME280;34064;44.942;0.008;2023-03-11T06:41:20;98059.88;;;17.11;71.30
47280;BME280;34064;44.942;0.008;2023-03-11T06:43:48;98068.28;;;17.08;71.17
47280;BME280;34064;44.942;0.008;2023-03-11T06:46:20;98063.25;;;17.05;71.43
47280;BME280;34064;44.942;0.008;2023-03-11T06:48:48;98059.03;;;17.11;70.98
47280;BME280;34064;44.942;0.008;2023-03-11T06:51:19;98056.88;;;17.06;71.20
47280;BME280;34064;44.942;0.008;2023-03-11T06:53:51;98060.22;;;17.08;71.20
47280;BME280;34064;44.942;0.008;2023-03-11T06:56:19;98074.66;;;17.07;71.06
47280;BME280;34064;44.942;0.008;2023-03-11T06:58:46;98072.44;;;17.11;71.22
47280;BME280;34064;44.942;0.008;2023-03-11T07:01:23;98063.44;;;17.04;71.39
47280;BME280;34064;44.942;0.008;2023-03-11T07:03:51;98085.75;;;17.04;71.27
47280;BME280;34064;44.942;0.008;2023-03-11T07:06:22;98078.72;;;17.03;71.50
47280;BME280;34064;44.942;0.008;2023-03-11T07:08:50;98081.75;;;17.00;71.48
47280;BME280;34064;44.942;0.008;2023-03-11T07:11:22;98083.09;;;16.96;71.56
47280;BME280;34064;44.942;0.008;2023-03-11T07:13:49;98086.44;;;16.98;71.61
47280;BME280;34064;44.942;0.008;2023-03-11T07:16:19;98086.81;;;16.95;71.55
47280;BME280;34064;44.942;0.008;2023-03-11T07:18:47;98078.88;;;17.02;71.33
47280;BME280;34064;44.942;0.008;2023-03-11T07:21:15;98086.28;;;16.99;71.43
47280;BME280;34064;44.942;0.008;2023-03-11T07:23:43;98086.28;;;16.99;71.21
47280;BME280;34064;44.942;0.008;2023-03-11T07:26:11;98088.97;;;16.99;71.33
47280;BME280;34064;44.942;0.008;2023-03-11T07:28:37;98093.81;;;16.96;71.46
47280;BME280;34064;44.942;0.008;2023-03-11T07:31:14;98095.34;;;16.98;71.19
47280;BME280;34064;44.942;0.008;2023-03-11T07:33:41;98100.22;;;16.95;71.57
47280;BME280;34064;44.942;0.008;2023-03-11T07:36:10;98110.59;;;16.90;71.48
47280;BME280;34064;44.942;0.008;2023-03-11T07:38:37;98121.16;;;16.91;71.54
47280;BME280;34064;44.942;0.008;2023-03-11T07:41:04;98104.41;;;16.89;71.80
47280;BME280;34064;44.942;0.008;2023-03-11T07:43:31;98109.41;;;16.92;71.59
47280;BME280;34064;44.942;0.008;2023-03-11T07:46:08;98115.63;;;16.93;71.48
47280;BME280;34064;44.942;0.008;2023-03-11T07:48:36;98106.22;;;16.97;71.49
47280;BME280;34064;44.942;0.008;2023-03-11T07:51:11;98101.25;;;16.94;71.65
47280;BME280;34064;44.942;0.008;2023-03-11T07:53:38;98115.97;;;16.90;71.85
47280;BME280;34064;44.942;0.008;2023-03-11T07:56:06;98123.53;;;16.94;71.77
47280;BME280;34064;44.942;0.008;2023-03-11T07:58:33;98130.22;;;16.98;71.57
47280;BME280;34064;44.942;0.008;2023-03-11T08:01:04;98136.22;;;16.92;71.76
47280;BME280;34064;44.942;0.008;2023-03-11T08:03:33;98132.91;;;16.90;71.88
47280;BME280;34064;44.942;0.008;2023-03-11T08:05:59;98136.22;;;16.92;71.83
47280;BME280;34064;44.942;0.008;2023-03-11T08:08:26;98143.78;;;16.97;71.59
47280;BME280;34064;44.942;0.008;2023-03-11T08:10:52;98138.44;;;16.97;71.50
47280;BME280;34064;44.942;0.008;2023-03-11T08:13:19;98150.81;;;16.98;71.63
47280;BME280;34064;44.942;0.008;2023-03-11T08:15:45;98148.50;;;16.95;71.53
47280;BME280;34064;44.942;0.008;2023-03-11T08:18:12;98147.47;;;16.96;71.65
47280;BME280;34064;44.942;0.008;2023-03-11T08:20:38;98144.63;;;16.97;71.50
47280;BME280;34064;44.942;0.008;2023-03-11T08:23:05;98145.47;;;16.98;71.40
47280;BME280;34064;44.942;0.008;2023-03-11T08:25:31;98143.44;;;17.00;71.46
47280;BME280;34064;44.942;0.008;2023-03-11T08:27:57;98146.13;;;17.00;71.53
47280;BME280;34064;44.942;0.008;2023-03-11T08:30:24;98144.94;;;17.03;71.29
47280;BME280;34064;44.942;0.008;2023-03-11T08:32:50;98149.81;;;16.99;71.77
47280;BME280;34064;44.942;0.008;2023-03-11T08:35:17;98157.19;;;16.97;71.68
47280;BME280;34064;44.942;0.008;2023-03-11T08:37:43;98158.53;;;17.01;71.46
47280;BME280;34064;44.942;0.008;2023-03-11T08:40:10;98151.84;;;16.97;71.62
47280;BME280;34064;44.942;0.008;2023-03-11T08:42:36;98153.16;;;17.01;71.58
47280;BME280;34064;44.942;0.008;2023-03-11T08:45:03;98171.94;;;17.01;71.67
47280;BME280;34064;44.942;0.008;2023-03-11T08:47:34;98170.28;;;17.00;71.45
47280;BME280;34064;44.942;0.008;2023-03-11T08:50:02;98172.66;;;16.95;71.68
47280;BME280;34064;44.942;0.008;2023-03-11T08:52:28;98181.72;;;16.94;71.86
47280;BME280;34064;44.942;0.008;2023-03-11T08:54:54;98172.97;;;17.00;71.52
47280;BME280;34064;44.942;0.008;2023-03-11T08:57:21;98173.25;;;17.05;71.49
47280;BME280;34064;44.942;0.008;2023-03-11T08:59:48;98178.03;;;16.95;71.72
47280;BME280;34064;44.942;0.008;2023-03-11T09:02:14;98180.34;;;16.98;71.68
47280;BME280;34064;44.942;0.008;2023-03-11T09:04:40;98182.69;;;17.01;71.56
47280;BME280;34064;44.942;0.008;2023-03-11T09:07:07;98192.44;;;16.94;71.76
47280;BME280;34064;44.942;0.008;2023-03-11T09:09:33;98201.47;;;16.93;71.93
47280;BME280;34064;44.942;0.008;2023-03-11T09:11:59;98191.75;;;17.00;71.67
47280;BME280;34064;44.942;0.008;2023-03-11T09:14:26;98194.75;;;16.97;71.86
47280;BME280;34064;44.942;0.008;2023-03-11T09:16:52;98192.56;;;17.00;71.49
47280;BME280;34064;44.942;0.008;2023-03-11T09:19:18;98195.75;;;16.96;71.79
47280;BME280;34064;44.942;0.008;2023-03-11T09:21:45;98193.94;;;16.96;71.82
47280;BME280;34064;44.942;0.008;2023-03-11T09:24:11;98181.50;;;17.04;71.69
47280;BME280;34064;44.942;0.008;2023-03-11T09:26:37;98190.03;;;17.07;71.53
47280;BME280;34064;44.942;0.008;2023-03-11T09:29:04;98199.41;;;17.11;71.39
47280;BME280;34064;44.942;0.008;2023-03-11T09:31:30;98198.25;;;17.06;71.89
47280;BME280;34064;44.942;0.008;2023-03-11T09:33:56;98199.59;;;17.02;71.86
47280;BME280;34064;44.942;0.008;2023-03-11T09:36:23;98206.50;;;17.04;71.70
47280;BME280;34064;44.942;0.008;2023-03-11T09:38:49;98207.81;;;17.08;71.68
47280;BME280;34064;44.942;0.008;2023-03-11T09:44:17;98199.75;;;17.08;71.63
47280;BME280;34064;44.942;0.008;2023-03-11T09:52:28;98188.69;;;17.11;71.82
47280;BME280;34064;44.942;0.008;2023-03-11T09:54:56;98192.38;;;17.10;71.93
47280;BME280;34064;44.942;0.008;2023-03-11T09:57:32;98200.41;;;17.10;72.01
47280;BME280;34064;44.942;0.008;2023-03-11T10:00:03;98191.19;;;17.13;71.77
47280;BME280;34064;44.942;0.008;2023-03-11T10:02:31;98193.34;;;17.18;71.50
47280;BME280;34064;44.942;0.008;2023-03-11T10:05:12;98196.34;;;17.23;71.38
47280;BME280;34064;44.942;0.008;2023-03-11T10:07:46;98203.06;;;17.19;71.48
47280;BME280;34064;44.942;0.008;2023-03-11T10:10:16;98203.72;;;17.21;71.60
47280;BME280;34064;44.942;0.008;2023-03-11T10:15:38;98214.81;;;17.18;71.57
47280;BME280;34064;44.942;0.008;2023-03-11T10:20:51;98219.22;;;17.10;71.49
47280;BME280;34064;44.942;0.008;2023-03-11T10:26:16;98239.69;;;17.03;71.66
47280;BME280;34064;44.942;0.008;2023-03-11T10:36:43;98226.91;;;17.05;71.64
47280;BME280;34064;44.942;0.008;2023-03-11T10:39:11;98234.44;;;17.10;71.37
47280;BME280;34064;44.942;0.008;2023-03-11T10:41:52;98225.63;;;17.01;71.69
47280;BME280;34064;44.942;0.008;2023-03-11T10:44:32;98216.56;;;17.02;71.69
47280;BME280;34064;44.942;0.008;2023-03-11T10:47:00;98220.25;;;17.01;71.72
47280;BME280;34064;44.942;0.008;2023-03-11T10:49:27;98219.38;;;17.00;71.60
47280;BME280;34064;44.942;0.008;2023-03-11T10:51:54;98232.66;;;17.02;71.56
47280;BME280;34064;44.942;0.008;2023-03-11T10:54:44;98227.44;;;17.00;71.53
47280;BME280;34064;44.942;0.008;2023-03-11T10:57:24;98238.84;;;17.03;71.93
47280;BME280;34064;44.942;0.008;2023-03-11T10:59:56;98235.63;;;17.07;71.74
47280;BME280;34064;44.942;0.008;2023-03-11T11:02:33;98233.63;;;17.09;71.38
47280;BME280;34064;44.942;0.008;2023-03-11T11:07:48;98243.03;;;17.13;71.49
47280;BME280;34064;44.942;0.008;2023-03-11T11:10:21;98231.75;;;17.18;71.37
47280;BME280;34064;44.942;0.008;2023-03-11T11:15:41;98219.50;;;17.15;71.43
47280;BME280;34064;44.942;0.008;2023-03-11T11:18:23;98226.88;;;17.22;71.23
47280;BME280;34064;44.942;0.008;2023-03-11T11:20:57;98221.13;;;17.25;71.17
47280;BME280;34064;44.942;0.008;2023-03-11T11:23:45;98222.81;;;17.26;71.51
47280;BME280;34064;44.942;0.008;2023-03-11T11:26:22;98226.16;;;17.28;71.08
47280;BME280;34064;44.942;0.008;2023-03-11T11:31:42;98233.19;;;17.37;71.16
47280;BME280;34064;44.942;0.008;2023-03-11T11:34:31;98233.69;;;17.33;71.19
47280;BME280;34064;44.942;0.008;2023-03-11T11:36:59;98240.56;;;17.35;70.73
47280;BME280;34064;44.942;0.008;2023-03-11T11:39:32;98233.00;;;17.39;71.03
47280;BME280;34064;44.942;0.008;2023-03-11T11:42:05;98223.09;;;17.39;70.95
47280;BME280;34064;44.942;0.008;2023-03-11T11:44:34;98236.34;;;17.41;70.73
47280;BME280;34064;44.942;0.008;2023-03-11T11:47:12;98242.19;;;17.44;70.65
47280;BME280;34064;44.942;0.008;2023-03-11T11:49:49;98245.06;;;17.43;70.62
47280;BME280;34064;44.942;0.008;2023-03-11T11:52:23;98241.91;;;17.39;70.63
47280;BME280;34064;44.942;0.008;2023-03-11T11:55:24;98253.78;;;17.45;70.52
47280;BME280;34064;44.942;0.008;2023-03-11T11:57:51;98250.78;;;17.40;70.80
47280;BME280;34064;44.942;0.008;2023-03-11T12:00:40;98248.28;;;17.38;70.93
47280;BME280;34064;44.942;0.008;2023-03-11T12:05:56;98248.28;;;17.38;70.62
47280;BME280;34064;44.942;0.008;2023-03-11T12:08:38;98249.59;;;17.42;70.66
47280;BME280;34064;44.942;0.008;2023-03-11T12:11:19;98244.25;;;17.42;70.68
47280;BME280;34064;44.942;0.008;2023-03-11T12:14:06;98246.75;;;17.44;70.74
47280;BME280;34064;44.942;0.008;2023-03-11T12:16:57;98244.25;;;17.42;70.96
47280;BME280;34064;44.942;0.008;2023-03-11T12:30:20;98284.94;;;17.54;71.00
47280;BME280;34064;44.942;0.008;2023-03-11T12:32:56;98284.09;;;17.54;70.77
47280;BME280;34064;44.942;0.008;2023-03-11T12:35:32;98285.16;;;17.44;70.99
47280;BME280;34064;44.942;0.008;2023-03-11T12:38:21;98283.13;;;17.46;70.90
47280;BME280;34064;44.942;0.008;2023-03-11T12:41:33;98278.25;;;17.50;70.60
47280;BME280;34064;44.942;0.008;2023-03-11T12:49:28;98296.25;;;17.41;70.83
47280;BME280;34064;44.942;0.008;2023-03-11T12:54:45;98299.81;;;17.34;71.32
47280;BME280;34064;44.942;0.008;2023-03-11T13:10:51;98269.31;;;17.58;70.76
47280;BME280;34064;44.942;0.008;2023-03-11T13:18:42;98263.38;;;17.71;70.97
47280;BME280;34064;44.942;0.008;2023-03-11T13:29:45;98254.06;;;17.82;70.29
47280;BME280;34064;44.942;0.008;2023-03-11T13:40:37;98266.41;;;17.68;70.45
47280;BME280;34064;44.942;0.008;2023-03-11T13:43:12;98264.19;;;17.71;70.57
47280;BME280;34064;44.942;0.008;2023-03-11T13:45:40;98260.03;;;17.69;70.40
47280;BME280;34064;44.942;0.008;2023-03-11T13:51:12;98257.81;;;17.72;69.97
47280;BME280;34064;44.942;0.008;2023-03-11T13:53:44;98264.19;;;17.71;69.89
47280;BME280;34064;44.942;0.008;2023-03-11T13:56:33;98269.72;;;17.78;70.20
47280;BME280;34064;44.942;0.008;2023-03-11T13:59:24;98267.94;;;17.70;70.31
47280;BME280;34064;44.942;0.008;2023-03-11T14:01:58;98274.94;;;17.71;70.34
47280;BME280;34064;44.942;0.008;2023-03-11T14:04:28;98272.94;;;17.73;70.39
47280;BME280;34064;44.942;0.008;2023-03-11T14:06:55;98262.19;;;17.73;70.08
47280;BME280;34064;44.942;0.008;2023-03-11T14:09:23;98287.75;;;17.69;70.19
47280;BME280;34064;44.942;0.008;2023-03-11T14:11:53;98292.06;;;17.78;69.76
47280;BME280;34064;44.942;0.008;2023-03-11T14:14:38;98274.25;;;17.77;69.89
47280;BME280;34064;44.942;0.008;2023-03-11T14:17:15;98289.41;;;17.70;70.09
47280;BME280;34064;44.942;0.008;2023-03-11T14:19:42;98292.72;;;17.72;70.29
47280;BME280;34064;44.942;0.008;2023-03-11T14:22:09;98296.13;;;17.66;70.25
47280;BME280;34064;44.942;0.008;2023-03-11T14:24:37;98298.16;;;17.64;70.40
47280;BME280;34064;44.942;0.008;2023-03-11T14:27:08;98294.78;;;17.70;70.15
47280;BME280;34064;44.942;0.008;2023-03-11T14:29:38;98296.13;;;17.66;70.23
47280;BME280;34064;44.942;0.008;2023-03-11T14:32:29;98296.31;;;17.65;70.41
47280;BME280;34064;44.942;0.008;2023-03-11T14:34:56;98300.16;;;17.70;70.42
47280;BME280;34064;44.942;0.008;2023-03-11T14:37:35;98304.81;;;17.76;70.19
47280;BME280;34064;44.942;0.008;2023-03-11T14:40:03;98297.06;;;17.82;70.31
47280;BME280;34064;44.942;0.008;2023-03-11T14:42:38;98305.16;;;17.73;70.39
47280;BME280;34064;44.942;0.008;2023-03-11T14:45:17;98313.88;;;17.75;70.62
47280;BME280;34064;44.942;0.008;2023-03-11T14:48:02;98310.19;;;17.76;70.56
47280;BME280;34064;44.942;0.008;2023-03-11T14:50:32;98318.44;;;17.75;70.36